Time;durP1;ratioP1;P1;durP2;ratioP2;P2;SDS_P1;SDS_P2;PMS_P1;PMS_P2;Temp;Humidity;BMP_temperature;BMP_pressure;BME280_temperature;BME280_humidity;BME280_pressure;Samples;Min_cycle;Max_cycle;Signal;HPM_P1;HPM_P2
2021/12/09 00:01:47;;;;;;;3.23;2.20;;;7.10;99.90;;;;;;5002486;28;20565;-82
2021/12/09 00:04:23;;;;;;;1.50;1.33;;;7.30;99.90;;;;;;4996756;28;20470;-82
2021/12/09 00:06:55;;;;;;;2.57;1.70;;;7.00;99.90;;;;;;4997496;28;20452;-80
2021/12/09 00:09:24;;;;;;;2.13;1.53;;;7.10;99.90;;;;;;5001631;28;20445;-80
2021/12/09 00:11:52;;;;;;;2.10;1.70;;;6.90;99.90;;;;;;4996014;28;20454;-82
2021/12/09 00:14:23;;;;;;;3.77;2.13;;;6.90;99.90;;;;;;5005270;28;20461;-83
2021/12/09 00:16:54;;;;;;;2.60;1.70;;;7.00;99.90;;;;;;5006501;28;20469;-83
2021/12/09 00:19:22;;;;;;;1.53;1.40;;;6.70;99.90;;;;;;5011680;28;20766;-81
2021/12/09 00:21:51;;;;;;;3.60;1.60;;;6.60;1.00;;;;;;5011366;28;20735;-84
2021/12/09 00:24:20;;;;;;;4.10;1.90;;;6.60;1.00;;;;;;5000933;28;20474;-83
2021/12/09 00:26:49;;;;;;;3.00;2.10;;;6.60;1.00;;;;;;5010819;28;20456;-80
2021/12/09 00:29:18;;;;;;;2.00;1.70;;;6.60;1.00;;;;;;5009060;28;20469;-82
2021/12/09 00:31:47;;;;;;;2.93;2.00;;;6.50;1.00;;;;;;5009462;28;20467;-82
2021/12/09 00:34:16;;;;;;;4.77;2.73;;;6.60;1.00;;;;;;5003659;28;20459;-84
2021/12/09 00:36:56;;;;;;;5.93;2.67;;;6.70;1.00;;;;;;5000071;28;20993;-81
2021/12/09 00:39:26;;;;;;;5.67;2.93;;;6.70;1.00;;;;;;5009144;28;20453;-81
2021/12/09 00:41:54;;;;;;;3.90;2.50;;;6.70;1.00;;;;;;5009476;28;20462;-81
2021/12/09 00:44:23;;;;;;;4.40;3.00;;;6.70;1.00;;;;;;5000608;28;20482;-82
2021/12/09 00:46:51;;;;;;;3.40;3.07;;;6.70;1.00;;;;;;5006298;28;20492;-81
2021/12/09 00:49:20;;;;;;;4.97;3.20;;;6.80;1.00;;;;;;5002224;28;20458;-83
2021/12/09 00:51:49;;;;;;;4.23;3.70;;;7.10;1.00;;;;;;5003902;28;20972;-83
2021/12/09 00:54:17;;;;;;;5.77;3.40;;;6.90;1.00;;;;;;5006156;28;20460;-83
2021/12/09 00:56:47;;;;;;;3.23;2.93;;;7.10;1.00;;;;;;5037150;28;20449;-85
2021/12/09 00:59:15;;;;;;;3.90;3.37;;;6.90;1.00;;;;;;4999586;28;20457;-83
2021/12/09 01:01:43;;;;;;;4.20;3.60;;;6.90;1.00;;;;;;4998318;28;20484;-82
2021/12/09 01:04:12;;;;;;;6.50;3.07;;;6.90;1.00;;;;;;5005466;28;20461;-82
2021/12/09 01:06:40;;;;;;;2.97;2.67;;;7.00;1.00;;;;;;5006194;28;20481;-83
2021/12/09 01:09:09;;;;;;;6.03;3.80;;;7.00;1.00;;;;;;5005662;28;20833;-83
2021/12/09 01:11:37;;;;;;;3.77;3.17;;;7.00;1.00;;;;;;4999423;28;20480;-83
2021/12/09 01:14:07;;;;;;;3.13;2.83;;;7.00;1.00;;;;;;5005263;28;20470;-83
2021/12/09 01:16:36;;;;;;;2.70;2.50;;;6.90;1.00;;;;;;5005312;28;20465;-83
2021/12/09 01:19:06;;;;;;;5.33;3.80;;;6.90;1.00;;;;;;4999294;28;20463;-82
2021/12/09 01:21:35;;;;;;;3.30;3.10;;;6.80;1.00;;;;;;5004333;28;20482;-83
2021/12/09 01:24:03;;;;;;;2.40;2.20;;;7.10;1.00;;;;;;5001305;28;20510;-82
2021/12/09 01:26:32;;;;;;;3.20;2.87;;;6.80;1.00;;;;;;5006508;28;21008;-82
2021/12/09 01:29:04;;;;;;;4.40;3.10;;;6.90;1.00;;;;;;5008178;28;20488;-84
2021/12/09 01:31:37;;;;;;;3.27;2.97;;;6.90;1.00;;;;;;5004780;28;20488;-81
2021/12/09 01:34:07;;;;;;;4.20;2.83;;;7.00;1.00;;;;;;5003737;28;20473;-81
2021/12/09 01:36:36;;;;;;;3.50;2.33;;;7.00;1.00;;;;;;5004202;28;20744;-83
2021/12/09 01:39:05;;;;;;;4.70;2.37;;;7.00;1.00;;;;;;5000924;28;20759;-84
2021/12/09 01:41:34;;;;;;;5.30;3.27;;;7.00;1.00;;;;;;5005234;28;20485;-83
2021/12/09 01:44:02;;;;;;;3.57;2.70;;;7.00;1.00;;;;;;5003048;28;20518;-82
2021/12/09 01:46:30;;;;;;;3.50;2.40;;;6.90;1.00;;;;;;5004591;28;20500;-83
2021/12/09 01:49:00;;;;;;;4.00;2.70;;;7.00;1.00;;;;;;5004990;28;20587;-83
2021/12/09 01:51:28;;;;;;;3.57;2.43;;;7.00;1.00;;;;;;5007451;28;20514;-82
2021/12/09 01:53:56;;;;;;;4.93;2.80;;;7.00;1.00;;;;;;4998967;28;20466;-83
2021/12/09 01:56:27;;;;;;;2.33;2.13;;;7.20;1.00;;;;;;5006394;28;20457;-82
2021/12/09 01:58:58;;;;;;;4.50;2.67;;;7.00;1.00;;;;;;5003490;28;20534;-84
2021/12/09 02:01:27;;;;;;;4.80;2.87;;;7.00;1.00;;;;;;5009123;28;20477;-83
2021/12/09 02:03:56;;;;;;;4.13;2.33;;;7.10;1.00;;;;;;5004992;28;20857;-83
2021/12/09 02:06:26;;;;;;;5.30;2.80;;;7.10;1.00;;;;;;5012984;28;20845;-81
2021/12/09 02:08:56;;;;;;;3.23;2.67;;;7.10;1.00;;;;;;5005230;28;20231;-82
2021/12/09 02:11:24;;;;;;;2.50;2.30;;;7.10;1.00;;;;;;5011414;28;20482;-81
2021/12/09 02:13:56;;;;;;;2.30;2.07;;;7.10;1.00;;;;;;5009117;28;20526;-82
2021/12/09 02:16:26;;;;;;;4.50;2.27;;;7.00;1.00;;;;;;5009470;28;20942;-82
2021/12/09 02:18:54;;;;;;;2.50;2.13;;;7.00;1.00;;;;;;5008061;28;21057;-84
2021/12/09 02:21:26;;;;;;;2.70;2.50;;;7.00;1.00;;;;;;5007458;28;20478;-82
2021/12/09 02:23:56;;;;;;;2.90;1.97;;;7.10;1.00;;;;;;5039344;28;20630;-82
2021/12/09 02:26:27;;;;;;;3.50;2.83;;;7.10;1.00;;;;;;5011934;28;20556;-82
2021/12/09 02:28:56;;;;;;;2.47;1.97;;;7.10;1.00;;;;;;4999287;28;20850;-82
2021/12/09 02:31:25;;;;;;;2.53;2.30;;;7.30;1.00;;;;;;5002233;28;20494;-82
2021/12/09 02:33:54;;;;;;;2.80;2.10;;;7.10;1.00;;;;;;4999270;28;20459;-82
2021/12/09 02:36:23;;;;;;;5.20;2.67;;;7.10;1.00;;;;;;5003293;28;20458;-80
2021/12/09 02:38:53;;;;;;;3.53;1.90;;;7.10;1.00;;;;;;5003780;28;20457;-83
2021/12/09 02:41:24;;;;;;;2.80;2.27;;;7.10;1.00;;;;;;5001033;28;20482;-83
2021/12/09 02:43:56;;;;;;;3.20;2.30;;;7.20;1.00;;;;;;4995408;28;20457;-82
2021/12/09 02:46:24;;;;;;;4.00;2.17;;;7.20;1.00;;;;;;4999915;28;20493;-82
2021/12/09 02:48:53;;;;;;;7.00;2.47;;;7.10;1.00;;;;;;5001973;28;20484;-81
2021/12/09 02:51:22;;;;;;;3.57;1.77;;;7.10;1.00;;;;;;4999161;28;20560;-83
2021/12/09 02:53:51;;;;;;;3.23;1.80;;;7.10;1.00;;;;;;4997076;28;20467;-82
2021/12/09 02:56:21;;;;;;;2.60;2.37;;;7.20;1.00;;;;;;5000077;28;20481;-84
2021/12/09 02:58:49;;;;;;;4.27;1.57;;;7.10;1.00;;;;;;4995370;28;20457;-84
2021/12/09 03:01:22;;;;;;;4.30;1.70;;;7.20;1.00;;;;;;4997093;28;20528;-81
2021/12/09 03:03:57;;;;;;;2.90;1.50;;;7.10;1.00;;;;;;5001044;28;20611;-80
2021/12/09 03:06:32;;;;;;;1.37;1.27;;;7.10;1.00;;;;;;5008748;28;20834;-83
2021/12/09 03:09:04;;;;;;;2.40;1.20;;;7.10;1.00;;;;;;5004289;28;20781;-83
2021/12/09 03:11:33;;;;;;;2.70;1.50;;;7.10;1.00;;;;;;5003857;28;20528;-80
2021/12/09 03:14:02;;;;;;;2.37;1.27;;;7.10;1.00;;;;;;5002578;28;20552;-83
2021/12/09 03:16:31;;;;;;;1.23;1.00;;;7.10;1.00;;;;;;5002551;28;20457;-82
2021/12/09 03:19:02;;;;;;;3.30;1.63;;;7.40;1.00;;;;;;5000336;28;20465;-83
2021/12/09 03:21:33;;;;;;;2.03;1.83;;;7.10;1.00;;;;;;5000538;28;20489;-82
2021/12/09 03:24:05;;;;;;;4.30;2.47;;;7.20;1.00;;;;;;5001722;28;20516;-81
2021/12/09 03:26:36;;;;;;;3.27;1.30;;;7.20;1.00;;;;;;4993884;28;20493;-82
2021/12/09 03:29:07;;;;;;;1.53;1.30;;;7.10;1.00;;;;;;4997953;28;20477;-82
2021/12/09 03:31:37;;;;;;;2.00;1.40;;;7.40;1.00;;;;;;4997431;28;20489;-82
2021/12/09 03:34:07;;;;;;;2.37;1.10;;;7.10;1.00;;;;;;4998040;28;20468;-81
2021/12/09 03:36:36;;;;;;;3.30;1.33;;;7.00;1.00;;;;;;4998006;28;20455;-84
2021/12/09 03:39:10;;;;;;;1.43;1.30;;;7.00;1.00;;;;;;5002312;28;20464;-82
2021/12/09 03:41:38;;;;;;;1.80;1.37;;;7.00;1.00;;;;;;4996885;28;20983;-82
2021/12/09 03:44:07;;;;;;;1.57;1.27;;;6.90;1.00;;;;;;5003503;28;21012;-82
2021/12/09 03:46:36;;;;;;;1.67;1.10;;;6.90;1.00;;;;;;5004982;28;20477;-84
2021/12/09 03:49:05;;;;;;;4.80;1.20;;;6.90;1.00;;;;;;5000431;28;20544;-81
2021/12/09 03:51:35;;;;;;;4.83;1.57;;;6.90;1.00;;;;;;5000653;28;20485;-81
2021/12/09 03:54:07;;;;;;;5.43;1.97;;;6.90;1.00;;;;;;4995939;28;20865;-81
2021/12/09 03:56:37;;;;;;;4.83;1.47;;;7.00;1.00;;;;;;4989084;28;20457;-82
2021/12/09 03:59:07;;;;;;;1.30;1.20;;;7.00;1.00;;;;;;5000405;28;20529;-82
2021/12/09 04:01:37;;;;;;;2.20;1.17;;;7.00;1.00;;;;;;4998308;28;21054;-80
2021/12/09 04:04:07;;;;;;;2.43;1.07;;;7.10;1.00;;;;;;5006033;28;20530;-82
2021/12/09 04:06:35;;;;;;;1.80;1.23;;;7.10;1.00;;;;;;4997651;28;20598;-81
2021/12/09 04:09:07;;;;;;;1.20;1.10;;;7.10;1.00;;;;;;4996046;28;21110;-79
2021/12/09 04:11:35;;;;;;;2.40;1.20;;;7.10;1.00;;;;;;5000647;28;21113;-81
2021/12/09 04:14:04;;;;;;;3.20;1.10;;;7.10;1.00;;;;;;5001917;28;20472;-80
2021/12/09 04:16:33;;;;;;;3.23;1.20;;;7.20;1.00;;;;;;5001457;28;20460;-79
2021/12/09 04:19:01;;;;;;;2.60;0.90;;;7.20;1.00;;;;;;4998931;28;20473;-83
2021/12/09 04:21:29;;;;;;;0.87;0.87;;;7.20;99.90;;;;;;5003700;28;20489;-80
2021/12/09 04:24:07;;;;;;;1.10;1.00;;;7.20;99.90;;;;;;5001378;28;20458;-82
2021/12/09 04:26:38;;;;;;;3.50;1.00;;;7.20;1.00;;;;;;5003145;28;20477;-80
2021/12/09 04:29:08;;;;;;;1.80;1.00;;;7.20;99.90;;;;;;4999062;28;20470;-80
2021/12/09 04:31:36;;;;;;;1.30;1.00;;;7.20;1.00;;;;;;4989293;28;20510;-82
2021/12/09 04:34:05;;;;;;;1.83;1.50;;;7.30;99.90;;;;;;5002610;28;20448;-81
2021/12/09 04:36:34;;;;;;;1.67;1.50;;;7.30;99.90;;;;;;5001683;28;20468;-82
2021/12/09 04:39:04;;;;;;;1.30;1.20;;;7.30;99.90;;;;;;4996993;28;20451;-82
2021/12/09 04:41:32;;;;;;;5.70;1.40;;;7.20;99.90;;;;;;5002547;28;20482;-79
2021/12/09 04:44:02;;;;;;;1.20;1.10;;;7.40;1.00;;;;;;4993895;28;20948;-80
2021/12/09 04:46:30;;;;;;;3.00;1.00;;;7.50;1.00;;;;;;5001126;28;20992;-81
2021/12/09 04:48:58;;;;;;;1.40;0.80;;;7.20;99.90;;;;;;5005650;28;20465;-82
2021/12/09 04:51:26;;;;;;;4.97;1.67;;;7.20;1.00;;;;;;5003865;28;20868;-80
2021/12/09 04:53:55;;;;;;;3.13;1.00;;;7.20;1.00;;;;;;5006099;28;20462;-82
2021/12/09 04:56:23;;;;;;;0.83;0.83;;;7.20;99.90;;;;;;5006514;28;20462;-81
2021/12/09 04:58:52;;;;;;;2.30;1.17;;;7.40;1.00;;;;;;4996742;28;20589;-83
2021/12/09 05:01:21;;;;;;;2.60;1.20;;;7.20;99.90;;;;;;4994840;28;20470;-80
2021/12/09 05:03:50;;;;;;;2.67;1.00;;;7.20;99.90;;;;;;5002035;28;20468;-83
2021/12/09 05:06:19;;;;;;;2.80;1.17;;;7.20;99.90;;;;;;5001619;28;20474;-82
2021/12/09 05:08:48;;;;;;;1.93;1.20;;;7.20;99.90;;;;;;5000555;28;20471;-83
2021/12/09 05:11:31;;;;;;;2.20;0.80;;;7.10;99.90;;;;;;5003235;28;20505;-81
2021/12/09 05:14:00;;;;;;;1.67;1.10;;;7.20;99.90;;;;;;4999311;28;20462;-81
2021/12/09 05:16:30;;;;;;;2.13;1.10;;;7.10;99.90;;;;;;5002707;28;20456;-81
2021/12/09 05:18:59;;;;;;;1.70;0.80;;;7.10;99.90;;;;;;5006472;28;20448;-81
2021/12/09 05:21:29;;;;;;;1.13;0.90;;;7.00;99.90;;;;;;5002490;28;20477;-81
2021/12/09 05:23:58;;;;;;;3.10;0.90;;;7.00;1.00;;;;;;5007600;28;20462;-83
2021/12/09 05:26:32;;;;;;;0.93;0.93;;;7.00;1.00;;;;;;5013624;28;20463;-82
2021/12/09 05:29:00;;;;;;;1.23;0.93;;;7.10;1.00;;;;;;5000004;28;20470;-83
2021/12/09 05:34:17;;;;;;;1.80;0.93;;;7.00;1.00;;;;;;4999526;28;21017;-83
2021/12/09 05:36:45;;;;;;;3.50;1.20;;;7.10;1.00;;;;;;5007165;28;20454;-81
2021/12/09 05:39:14;;;;;;;4.00;1.63;;;7.00;99.90;;;;;;5003559;28;20461;-81
2021/12/09 05:41:43;;;;;;;2.97;1.30;;;7.00;1.00;;;;;;5003833;28;20491;-81
2021/12/09 05:44:12;;;;;;;5.83;1.20;;;7.00;99.90;;;;;;5007377;28;20457;-81
2021/12/09 05:46:45;;;;;;;6.73;1.00;;;7.00;99.90;;;;;;5000394;28;20453;-79
2021/12/09 05:49:15;;;;;;;1.10;1.00;;;7.00;99.90;;;;;;5000885;28;20461;-80
2021/12/09 05:51:44;;;;;;;1.10;1.10;;;7.10;99.90;;;;;;5003507;28;20489;-81
2021/12/09 05:54:13;;;;;;;2.63;1.20;;;7.10;99.90;;;;;;4992512;28;20465;-80
2021/12/09 05:56:41;;;;;;;1.73;1.10;;;7.20;99.90;;;;;;5000295;28;20457;-79
2021/12/09 05:59:10;;;;;;;2.47;1.30;;;7.20;99.90;;;;;;4992381;28;20982;-79
2021/12/09 06:01:40;;;;;;;1.30;1.20;;;7.20;99.90;;;;;;5001537;28;20486;-81
2021/12/09 06:04:11;;;;;;;1.83;1.07;;;7.20;99.90;;;;;;4996576;28;20457;-80
2021/12/09 06:06:40;;;;;;;3.33;1.10;;;7.20;99.90;;;;;;4999905;28;20450;-78
2021/12/09 06:09:10;;;;;;;1.77;1.10;;;7.20;99.90;;;;;;5003808;28;20485;-81
2021/12/09 06:11:39;;;;;;;1.03;0.90;;;7.20;99.90;;;;;;4995498;28;20492;-80
2021/12/09 06:14:08;;;;;;;1.00;0.87;;;7.20;99.90;;;;;;4999064;28;20537;-81
2021/12/09 06:16:37;;;;;;;2.73;1.10;;;7.20;99.90;;;;;;5002764;28;20588;-79
2021/12/09 06:19:05;;;;;;;1.03;1.03;;;7.20;99.90;;;;;;5000579;28;20462;-80
2021/12/09 06:21:35;;;;;;;1.67;1.00;;;7.20;99.90;;;;;;5004741;28;20469;-79
2021/12/09 06:24:03;;;;;;;5.57;1.70;;;7.20;99.90;;;;;;4997984;28;20458;-80
2021/12/09 06:26:33;;;;;;;2.60;1.23;;;7.20;99.90;;;;;;5000148;28;20464;-80
2021/12/09 06:29:02;;;;;;;1.17;1.07;;;7.20;99.90;;;;;;5000550;28;20485;-79
2021/12/09 06:31:31;;;;;;;3.10;1.30;;;7.20;99.90;;;;;;4993826;28;20489;-80
2021/12/09 06:33:59;;;;;;;1.57;1.30;;;7.40;99.90;;;;;;5002484;28;20453;-81
2021/12/09 06:36:27;;;;;;;1.10;0.97;;;7.10;99.90;;;;;;5000473;28;20515;-78
2021/12/09 06:38:57;;;;;;;2.53;1.97;;;7.20;99.90;;;;;;4991617;28;20463;-80
2021/12/09 06:41:26;;;;;;;1.63;1.17;;;7.10;99.90;;;;;;4999456;28;20483;-81
2021/12/09 06:43:54;;;;;;;1.07;1.00;;;7.10;99.90;;;;;;4987803;28;20462;-80
2021/12/09 06:46:22;;;;;;;1.80;1.03;;;7.20;99.90;;;;;;4995944;28;20460;-79
2021/12/09 06:48:51;;;;;;;2.33;1.60;;;7.10;99.90;;;;;;4999190;28;20476;-81
2021/12/09 06:51:19;;;;;;;2.53;1.50;;;7.40;99.90;;;;;;4999460;28;20488;-81
2021/12/09 06:53:47;;;;;;;3.43;1.67;;;7.20;99.90;;;;;;5005293;28;20477;-81
2021/12/09 06:56:17;;;;;;;2.20;1.10;;;7.10;99.90;;;;;;5001735;28;20447;-78
2021/12/09 06:58:45;;;;;;;1.60;1.20;;;7.10;99.90;;;;;;4996363;28;20455;-81
2021/12/09 07:01:13;;;;;;;1.57;1.17;;;7.10;99.90;;;;;;4999373;28;21015;-81
2021/12/09 07:03:42;;;;;;;1.30;1.20;;;7.10;99.90;;;;;;4999011;28;20523;-79
2021/12/09 07:06:11;;;;;;;1.30;1.20;;;7.10;99.90;;;;;;4999820;28;20468;-80
2021/12/09 07:08:45;;;;;;;1.63;1.02;;;7.20;99.90;;;;;;4995560;28;20459;-80
2021/12/09 07:11:14;;;;;;;3.30;1.20;;;7.20;99.90;;;;;;4998450;28;20227;-80
2021/12/09 07:13:45;;;;;;;3.00;1.37;;;7.20;99.90;;;;;;5001106;28;20466;-81
2021/12/09 07:16:13;;;;;;;2.63;1.00;;;7.20;99.90;;;;;;4990267;28;20472;-78
2021/12/09 07:18:42;;;;;;;2.10;1.43;;;7.20;99.90;;;;;;4992740;28;20851;-80
2021/12/09 07:21:11;;;;;;;2.47;1.10;;;7.20;99.90;;;;;;4996998;28;20533;-80
2021/12/09 07:23:39;;;;;;;1.27;1.13;;;7.20;99.90;;;;;;4995458;28;20464;-79
2021/12/09 07:26:07;;;;;;;1.30;1.20;;;7.20;99.90;;;;;;4998809;28;20472;-80
2021/12/09 07:28:36;;;;;;;4.60;1.30;;;7.20;99.90;;;;;;5000008;28;20612;-83
2021/12/09 07:31:06;;;;;;;1.87;1.40;;;7.20;99.90;;;;;;5002489;28;20532;-79
2021/12/09 07:33:34;;;;;;;2.57;1.40;;;7.10;99.90;;;;;;4992068;28;20477;-80
2021/12/09 07:36:04;;;;;;;4.37;1.40;;;7.10;99.90;;;;;;4994060;28;20536;-80
2021/12/09 07:38:32;;;;;;;2.03;1.50;;;7.10;99.90;;;;;;5002931;28;20461;-79
2021/12/09 07:41:01;;;;;;;3.43;1.70;;;7.00;99.90;;;;;;4994299;28;20476;-80
2021/12/09 07:43:30;;;;;;;2.23;1.10;;;6.80;99.90;;;;;;4997671;28;20478;-81
2021/12/09 07:45:58;;;;;;;5.97;1.40;;;6.60;99.90;;;;;;5005426;28;20837;-79
2021/12/09 07:48:28;;;;;;;2.70;1.93;;;6.50;99.90;;;;;;5013090;28;20483;-80
2021/12/09 07:50:57;;;;;;;3.80;1.63;;;6.50;99.90;;;;;;4997205;28;20501;-81
2021/12/09 07:53:25;;;;;;;3.30;1.40;;;6.40;99.90;;;;;;4998514;28;20459;-81
2021/12/09 07:55:55;;;;;;;1.87;1.37;;;6.60;99.90;;;;;;4995118;28;20459;-80
2021/12/09 07:58:23;;;;;;;2.70;1.53;;;6.70;99.90;;;;;;4999068;28;20527;-80
2021/12/09 08:00:51;;;;;;;4.23;1.50;;;6.70;99.90;;;;;;4998025;28;20484;-80
2021/12/09 08:03:20;;;;;;;1.90;1.33;;;6.80;99.90;;;;;;5010423;28;20469;-82
2021/12/09 08:05:50;;;;;;;1.97;1.50;;;6.90;99.90;;;;;;5007012;28;20477;-81
2021/12/09 08:08:18;;;;;;;1.57;1.10;;;6.90;99.90;;;;;;4998387;28;20485;-80
2021/12/09 08:10:46;;;;;;;1.60;1.50;;;6.80;99.90;;;;;;4997216;28;20488;-80
2021/12/09 08:13:15;;;;;;;3.03;1.50;;;6.80;99.90;;;;;;4994068;28;20545;-80
2021/12/09 08:15:47;;;;;;;3.23;1.37;;;6.80;99.90;;;;;;4991376;28;20462;-80
2021/12/09 08:18:26;;;;;;;3.20;1.90;;;6.70;99.90;;;;;;4995163;28;20457;-83
2021/12/09 08:20:58;;;;;;;5.33;1.97;;;6.60;99.90;;;;;;4999776;28;20218;-81
2021/12/09 08:23:28;;;;;;;1.77;1.37;;;6.80;99.90;;;;;;4989922;28;20465;-82
2021/12/09 08:25:58;;;;;;;2.80;1.57;;;6.90;99.90;;;;;;4998589;28;20456;-81
2021/12/09 08:28:26;;;;;;;2.67;1.87;;;6.80;99.90;;;;;;4996533;28;21236;-80
2021/12/09 08:30:55;;;;;;;2.40;1.50;;;6.70;99.90;;;;;;4995953;28;20485;-82
2021/12/09 08:33:25;;;;;;;1.73;1.40;;;6.70;99.90;;;;;;4997346;28;20460;-81
2021/12/09 08:35:54;;;;;;;1.40;1.30;;;6.70;99.90;;;;;;5001288;28;20536;-81
2021/12/09 08:38:25;;;;;;;3.37;1.93;;;6.80;99.90;;;;;;5000693;28;20474;-81
2021/12/09 08:40:55;;;;;;;7.43;1.40;;;6.70;99.90;;;;;;5001021;28;20481;-78
2021/12/09 08:43:24;;;;;;;3.00;1.30;;;6.60;99.90;;;;;;4994231;28;20453;-81
2021/12/09 08:45:54;;;;;;;1.70;1.60;;;6.60;99.90;;;;;;5015424;28;20460;-81
2021/12/09 08:48:23;;;;;;;2.40;1.47;;;6.70;99.90;;;;;;4998543;28;20459;-80
2021/12/09 08:50:52;;;;;;;4.20;1.40;;;6.80;99.90;;;;;;5000696;28;20481;-82
2021/12/09 08:53:23;;;;;;;2.70;1.80;;;6.90;99.90;;;;;;5002175;28;20467;-83
2021/12/09 08:55:54;;;;;;;2.40;1.67;;;6.90;99.90;;;;;;4997211;28;20454;-81
2021/12/09 08:58:23;;;;;;;1.20;1.10;;;7.00;99.90;;;;;;4995779;28;20454;-81
2021/12/09 09:00:54;;;;;;;2.57;1.47;;;7.00;99.90;;;;;;5001427;28;21036;-80
2021/12/09 09:03:22;;;;;;;2.57;1.40;;;7.00;99.90;;;;;;4994312;28;20511;-80
2021/12/09 09:05:51;;;;;;;1.60;1.33;;;6.90;99.90;;;;;;4997951;28;20478;-80
2021/12/09 09:08:19;;;;;;;1.43;1.33;;;7.00;99.90;;;;;;4996390;28;20493;-80
2021/12/09 09:10:49;;;;;;;2.70;2.30;;;6.80;99.90;;;;;;5000692;28;20817;-81
2021/12/09 09:13:18;;;;;;;2.40;1.17;;;6.80;99.90;;;;;;4998740;28;20447;-81
2021/12/09 09:15:48;;;;;;;3.37;1.90;;;6.70;99.90;;;;;;4999092;28;20506;-80
2021/12/09 09:18:19;;;;;;;3.03;2.10;;;7.00;1.00;;;;;;5006193;28;20463;-82
2021/12/09 09:20:49;;;;;;;4.97;1.50;;;6.60;1.00;;;;;;5012494;28;20465;-81
2021/12/09 09:23:19;;;;;;;1.70;1.17;;;6.50;1.00;;;;;;5002917;28;20993;-80
2021/12/09 09:25:48;;;;;;;1.10;1.00;;;6.60;1.00;;;;;;5004449;28;21046;-81
2021/12/09 09:28:19;;;;;;;1.73;1.37;;;6.70;1.00;;;;;;5000817;28;20473;-81
2021/12/09 09:31:00;;;;;;;4.83;2.50;;;6.50;1.00;;;;;;5003743;28;21001;-81
2021/12/09 09:38:14;;;;;;;1.77;1.30;;;6.60;1.00;;;;;;4998725;28;20461;-81
2021/12/09 09:41:32;;;;;;;3.90;2.20;;;6.90;1.00;;;;;;4996604;28;20568;-82
2021/12/09 09:48:13;;;;;;;1.50;1.20;;;6.50;1.00;;;;;;4990601;28;20499;-80
2021/12/09 09:51:31;;;;;;;3.57;1.70;;;6.40;1.00;;;;;;5006803;28;20545;-80
2021/12/09 09:54:47;;;;;;;4.03;1.87;;;6.50;1.00;;;;;;4991644;28;20482;-81
2021/12/09 09:59:58;;;;;;;3.20;1.53;;;6.70;1.00;;;;;;4981012;28;20521;-79
2021/12/09 10:02:26;;;;;;;1.93;1.83;;;6.90;1.00;;;;;;4999994;28;20469;-82
2021/12/09 10:05:00;;;;;;;4.07;1.70;;;6.90;1.00;;;;;;5000282;28;20470;-80
2021/12/09 10:07:30;;;;;;;1.67;1.57;;;7.00;1.00;;;;;;4996000;28;20468;-82
2021/12/09 10:10:00;;;;;;;1.70;1.30;;;6.70;1.00;;;;;;4981585;28;20492;-82
2021/12/09 10:12:28;;;;;;;1.00;1.00;;;6.70;1.00;;;;;;4983333;28;20456;-83
2021/12/09 10:14:58;;;;;;;2.60;1.20;;;6.40;1.00;;;;;;4983514;28;20448;-80
2021/12/09 10:17:28;;;;;;;1.03;1.03;;;6.40;1.00;;;;;;4980738;28;20458;-78
2021/12/09 10:20:11;;;;;;;2.10;1.43;;;6.10;1.00;;;;;;4982188;28;20458;-82
2021/12/09 10:22:40;;;;;;;4.00;2.83;;;6.50;1.00;;;;;;4986624;28;20456;-81
2021/12/09 10:25:19;;;;;;;1.73;1.63;;;6.60;1.00;;;;;;4984992;28;20455;-80
2021/12/09 10:27:58;;;;;;;1.70;1.23;;;6.60;1.00;;;;;;4981998;28;20459;-82
2021/12/09 10:30:29;;;;;;;1.53;1.43;;;6.70;1.00;;;;;;4980758;28;20473;-80
2021/12/09 10:33:02;;;;;;;1.27;1.00;;;6.50;1.00;;;;;;4977866;28;21011;-80
2021/12/09 10:35:31;;;;;;;2.10;1.90;;;6.50;1.00;;;;;;4984543;28;20502;-79
2021/12/09 10:38:03;;;;;;;2.40;1.07;;;6.40;1.00;;;;;;4981232;28;20536;-82
2021/12/09 10:40:32;;;;;;;1.77;1.30;;;6.60;1.00;;;;;;4978093;28;20466;-82
2021/12/09 10:43:03;;;;;;;1.30;1.15;;;6.70;1.00;;;;;;4981554;28;21217;-79
2021/12/09 10:45:35;;;;;;;2.03;1.10;;;6.80;1.00;;;;;;4982540;28;20196;-80
2021/12/09 10:48:20;;;;;;;1.97;1.40;;;6.70;1.00;;;;;;4983108;28;20493;-83
2021/12/09 10:51:07;;;;;;;1.47;1.23;;;6.60;1.00;;;;;;4958559;28;21093;-81
2021/12/09 10:53:46;;;;;;;1.73;1.27;;;6.80;1.00;;;;;;4966035;28;20455;-78
2021/12/09 10:56:26;;;;;;;1.00;1.00;;;6.90;1.00;;;;;;4987720;28;20568;-81
2021/12/09 10:58:54;;;;;;;3.20;1.60;;;6.90;1.00;;;;;;4977133;28;20489;-80
2021/12/09 11:01:25;;;;;;;3.43;0.90;;;6.90;1.00;;;;;;4982163;28;20455;-79
2021/12/09 11:03:55;;;;;;;1.30;1.17;;;6.80;1.00;;;;;;4988720;28;20476;-80
2021/12/09 11:06:31;;;;;;;2.20;1.00;;;6.90;1.00;;;;;;4981056;28;20467;-80
2021/12/09 11:09:03;;;;;;;1.07;1.00;;;7.10;1.00;;;;;;4980551;28;20494;-79
2021/12/09 11:11:34;;;;;;;1.40;1.25;;;7.30;1.00;;;;;;4979833;28;20451;-81
2021/12/09 11:14:09;;;;;;;1.20;1.10;;;7.10;1.00;;;;;;4980259;28;20543;-80
2021/12/09 11:16:41;;;;;;;2.20;0.83;;;7.20;1.00;;;;;;4975836;28;20831;-80
2021/12/09 11:19:12;;;;;;;3.70;1.10;;;7.30;1.00;;;;;;4976495;28;20576;-82
2021/12/09 11:21:45;;;;;;;5.93;1.27;;;7.30;1.00;;;;;;4971548;28;20681;-81
2021/12/09 11:24:17;;;;;;;1.03;0.80;;;7.20;1.00;;;;;;4965529;28;20510;-83
2021/12/09 11:26:52;;;;;;;3.30;1.40;;;7.20;1.00;;;;;;4977804;28;20470;-81
2021/12/09 11:29:23;;;;;;;2.20;1.10;;;7.50;99.90;;;;;;4979160;28;20516;-81
2021/12/09 11:32:02;;;;;;;1.03;1.00;;;7.20;1.00;;;;;;4981782;28;20509;-81
2021/12/09 11:34:42;;;;;;;1.67;1.10;;;7.20;1.00;;;;;;4979399;28;20461;-80
2021/12/09 11:37:34;;;;;;;1.10;1.00;;;7.20;1.00;;;;;;4983146;28;20983;-80
2021/12/09 11:40:12;;;;;;;1.30;0.90;;;7.20;1.00;;;;;;4994299;28;20484;-82
2021/12/09 11:42:46;;;;;;;4.77;1.00;;;7.10;1.00;;;;;;4970276;28;20540;-81
2021/12/09 11:45:19;;;;;;;1.10;1.00;;;7.10;1.00;;;;;;4978752;28;20467;-80
2021/12/09 11:47:50;;;;;;;2.10;1.20;;;7.10;1.00;;;;;;4975335;28;20451;-81
2021/12/09 11:50:21;;;;;;;1.13;1.03;;;7.00;1.00;;;;;;4980916;28;20230;-80
2021/12/09 11:52:52;;;;;;;1.43;1.30;;;6.90;1.00;;;;;;4975654;28;20518;-80
2021/12/09 11:55:27;;;;;;;3.03;1.63;;;6.80;1.00;;;;;;4980315;28;20453;-80
2021/12/09 11:57:59;;;;;;;2.50;1.30;;;7.00;1.00;;;;;;4984030;28;20483;-82
2021/12/09 12:12:45;;;;;;;3.03;0.90;;;7.40;1.00;;;;;;4967297;28;20843;-80
2021/12/09 12:15:45;;;;;;;2.50;0.90;;;7.30;99.90;;;;;;4979350;28;20971;-81
2021/12/09 12:21:12;;;;;;;4.00;1.40;;;7.50;99.90;;;;;;4972838;28;20473;-80
2021/12/09 12:23:50;;;;;;;5.00;2.00;;;7.60;99.90;;;;;;4973149;28;20452;-81
2021/12/09 12:26:53;;;;;;;1.40;1.10;;;7.80;99.90;;;;;;4981818;28;20831;-80
2021/12/09 12:29:43;;;;;;;1.90;0.90;;;7.90;99.90;;;;;;4976142;28;20487;-81
2021/12/09 12:32:47;;;;;;;1.50;1.10;;;7.90;99.90;;;;;;4976934;28;20486;-80
2021/12/09 12:38:32;;;;;;;1.70;0.90;;;8.10;99.90;;;;;;4976408;28;20517;-80
2021/12/09 12:41:09;;;;;;;2.67;0.80;;;7.80;99.90;;;;;;4983854;28;20540;-81
2021/12/09 12:43:45;;;;;;;4.00;1.00;;;7.90;99.90;;;;;;4976555;28;20523;-80
2021/12/09 12:46:39;;;;;;;2.00;0.80;;;8.20;99.90;;;;;;4976265;28;20457;-80
2021/12/09 12:49:16;;;;;;;2.70;0.90;;;7.90;99.90;;;;;;4975670;28;21090;-81
2021/12/09 12:51:54;;;;;;;1.00;0.90;;;8.10;99.90;;;;;;4978124;28;20594;-77
2021/12/09 12:54:36;;;;;;;2.87;1.00;;;8.10;99.90;;;;;;4980332;28;20976;-80
2021/12/09 12:57:13;;;;;;;5.20;1.30;;;8.30;99.90;;;;;;4977182;28;20460;-80
2021/12/09 12:59:43;;;;;;;3.35;0.95;;;8.30;99.90;;;;;;4976917;28;20101;-82
2021/12/09 13:02:48;;;;;;;1.00;0.90;;;8.20;99.90;;;;;;4980396;28;20202;-82
2021/12/09 13:05:28;;;;;;;1.77;1.00;;;8.10;99.90;;;;;;4978591;28;20461;-84
2021/12/09 13:11:03;;;;;;;3.37;1.00;;;7.80;99.90;;;;;;4967197;28;20493;-79
2021/12/09 13:13:41;;;;;;;4.63;0.90;;;7.70;99.90;;;;;;4974759;28;20461;-81
2021/12/09 13:16:16;;;;;;;0.77;0.70;;;7.30;99.90;;;;;;4979286;28;20461;-82
2021/12/09 13:19:00;;;;;;;2.03;1.00;;;6.90;99.90;;;;;;4983026;28;20597;-80
2021/12/09 13:21:41;;;;;;;2.20;0.73;;;7.40;99.90;;;;;;4978539;28;20456;-82
2021/12/09 13:24:47;;;;;;;2.20;1.20;;;7.70;99.90;;;;;;4982655;28;20558;-81
2021/12/09 13:27:32;;;;;;;4.33;0.97;;;7.60;99.90;;;;;;4896808;29;20462;-80
2021/12/09 13:30:27;;;;;;;1.70;1.00;;;7.50;99.90;;;;;;4896527;29;20485;-80
2021/12/09 13:33:13;;;;;;;2.80;1.10;;;7.30;99.90;;;;;;4965200;28;20493;-81
2021/12/09 13:39:02;;;;;;;2.73;0.93;;;7.60;99.90;;;;;;4968155;28;20480;-80
2021/12/09 13:47:23;;;;;;;3.43;0.90;;;8.00;99.90;;;;;;4978628;28;20465;-82
2021/12/09 13:49:59;;;;;;;1.30;0.87;;;7.70;99.90;;;;;;4977046;28;20469;-83
2021/12/09 13:55:17;;;;;;;7.03;1.00;;;8.00;99.90;;;;;;4982369;28;20462;-81
2021/12/09 13:57:48;;;;;;;2.70;0.90;;;8.00;99.90;;;;;;4981856;28;21572;-81
2021/12/09 14:00:34;;;;;;;3.40;0.80;;;8.10;99.90;;;;;;4971187;28;20518;-81
2021/12/09 14:03:07;;;;;;;1.67;0.90;;;8.00;99.90;;;;;;4978448;28;20554;-80
2021/12/09 14:05:45;;;;;;;0.80;0.80;;;8.10;99.90;;;;;;4975815;28;21000;-79
2021/12/09 14:08:14;;;;;;;1.27;0.80;;;8.10;99.90;;;;;;4981455;28;20452;-82
2021/12/09 14:10:49;;;;;;;3.03;0.80;;;8.10;99.90;;;;;;4979592;28;20549;-79
2021/12/09 14:13:20;;;;;;;1.17;0.70;;;8.10;99.90;;;;;;4977966;28;20484;-80
2021/12/09 14:18:44;;;;;;;3.30;0.80;;;8.10;99.90;;;;;;4973840;28;20551;-79